This is the latest recevied weather packets stored in our database for station/object DJ0JJ-11. If no packets are shown the sender has not sent any weather packets the latest 10 day(s).
| Time | Temp. | Humidity | Pressure | Rain* | Wind** | Luminosity | Snow |
|---|---|---|---|---|---|---|---|
| 1777778937 | 14.44° C | 70% | 1016.8 hPa | - | - | - | - |
| 1777778037 | 14.44° C | 71% | 1016.8 hPa | - | - | - | - |
| 1777777137 | 14.44° C | 72% | 1016.8 hPa | - | - | - | - |
| 1777776237 | 15° C | 67% | 1016.7 hPa | - | - | - | - |
| 1777775336 | 14.44° C | 70% | 1016.7 hPa | - | - | - | - |
| 1777774436 | 14.44° C | 69% | 1016.8 hPa | - | - | - | - |
| 1777773536 | 14.44° C | 69% | 1017 hPa | - | - | - | - |
| 1777772636 | 15.56° C | 65% | 1017 hPa | - | - | - | - |
| 1777771736 | 15.56° C | 65% | 1017 hPa | - | - | - | - |
| 1777770836 | 15.56° C | 66% | 1016.9 hPa | - | - | - | - |
| 1777769936 | 15.56° C | 65% | 1017 hPa | - | - | - | - |
| 1777769035 | 14.44° C | 69% | 1017.2 hPa | - | - | - | - |
| 1777768135 | 15° C | 67% | 1017.2 hPa | - | - | - | - |
| 1777767235 | 15.56° C | 65% | 1017.3 hPa | - | - | - | - |
| 1777766335 | 16.11° C | 63% | 1017.4 hPa | - | - | - | - |
| 1777765435 | 15.56° C | 66% | 1017.3 hPa | - | - | - | - |
| 1777764535 | 16.11° C | 62% | 1017.6 hPa | - | - | - | - |
| 1777763635 | 16.11° C | 64% | 1017.7 hPa | - | - | - | - |
| 1777762734 | 17.22° C | 59% | 1017.7 hPa | - | - | - | - |
| 1777761834 | 16.67° C | 61% | 1017.6 hPa | - | - | - | - |
| 1777760934 | 17.78° C | 57% | 1017.6 hPa | - | - | - | - |
| 1777760034 | 17.78° C | 57% | 1017.6 hPa | - | - | - | - |
| 1777759134 | 17.78° C | 58% | 1017.5 hPa | - | - | - | - |
| 1777758234 | 18.33° C | 58% | 1017.5 hPa | - | - | - | - |
| 1777757334 | 18.33° C | 57% | 1017.4 hPa | - | - | - | - |
* Rain since midnight (hover to see other rain measurements)
** Current wind speed in m/s (hover to see current wind gust speed)